KADW/ADW METAR and TAF weather

Enter ICAO airport designator
Station Type Date Time Source
KADW METAR 2018/06/25 02:05 UTC NOAA

KADW 250205Z AUTO 22008KT 5SM RA BR BKN028 BKN049 23/21 A2991 RMK AO2 TSE05 CIG 028V047 SLP133 $


Station Type Date Time Source
KADW Decoded METAR 2018/06/25 02:05 UTC NOAA

Camp Springs / Andrews Air Force Base, MD, United States (KADW) 38-49N 076-51W 88M
Jun 24, 2018 - 10:05 PM EDT / 2018.06.25 0205 UTC
Wind: from the SW (220 degrees) at 9 MPH (8 KT):0
Visibility: 5 mile(s):0
Sky conditions: mostly cloudy
Weather: rain; mist
Temperature: 73 F (23 C)
Dew Point: 69 F (21 C)
Relative Humidity: 88%
Pressure (altimeter): 29.91 in. Hg (1012 hPa)
ob: KADW 250205Z AUTO 22008KT 5SM RA BR BKN028 BKN049 23/21 A2991 RMK AO2 TSE05 CIG 028V047 SLP133
cycle: 2

Station Type Date Time Source
KADW TAF 2018/06/25 23:06 UTC NOAA

TAF TAF
AMD KADW 242355Z 2423/2523 27012KT 9999 SCT050 SCT100 QNH2982INS WND 31006KT AFT 2500
TEMPO 2423/2501 27010G15KT 6000 -TSRA FEW010 BKN050CB OVC100
BECMG 2512/2513 35010G15KT 9999 FEW030 QNH3001INS
BECMG 2521/2522 34006KT 9999 SKC QNH3005INS TX33/2423Z TN21/2511Z


Example: see airport list